sensor_id;sensor_type;location;lat;lon;timestamp;P1;P2;P0
74880;PMS5003;63427;49.654;6.596;2024-01-10T00:01:40;26;21;
74880;PMS5003;63427;49.654;6.596;2024-01-10T00:04:06;26;23;
74880;PMS5003;63427;49.654;6.596;2024-01-10T00:06:31;19;17;
74880;PMS5003;63427;49.654;6.596;2024-01-10T00:08:56;21;21;
74880;PMS5003;63427;49.654;6.596;2024-01-10T00:11:27;24;21;
74880;PMS5003;63427;49.654;6.596;2024-01-10T00:13:46;24;23;
74880;PMS5003;63427;49.654;6.596;2024-01-10T00:16:12;23;20;
74880;PMS5003;63427;49.654;6.596;2024-01-10T00:18:37;23;22;
74880;PMS5003;63427;49.654;6.596;2024-01-10T00:21:03;24;22;
74880;PMS5003;63427;49.654;6.596;2024-01-10T00:23:28;23;22;
74880;PMS5003;63427;49.654;6.596;2024-01-10T00:25:54;23;23;
74880;PMS5003;63427;49.654;6.596;2024-01-10T00:28:24;22;20;
74880;PMS5003;63427;49.654;6.596;2024-01-10T00:30:44;25;23;
74880;PMS5003;63427;49.654;6.596;2024-01-10T00:33:10;19;18;
74880;PMS5003;63427;49.654;6.596;2024-01-10T00:35:35;23;23;
74880;PMS5003;63427;49.654;6.596;2024-01-10T00:38:01;25;23;
74880;PMS5003;63427;49.654;6.596;2024-01-10T00:40:26;25;22;
74880;PMS5003;63427;49.654;6.596;2024-01-10T00:42:52;22;22;
74880;PMS5003;63427;49.654;6.596;2024-01-10T00:45:17;19;18;
74880;PMS5003;63427;49.654;6.596;2024-01-10T00:47:42;27;26;
74880;PMS5003;63427;49.654;6.596;2024-01-10T00:50:08;26;25;
74880;PMS5003;63427;49.654;6.596;2024-01-10T00:52:33;20;20;
74880;PMS5003;63427;49.654;6.596;2024-01-10T00:54:59;22;20;
74880;PMS5003;63427;49.654;6.596;2024-01-10T00:57:24;22;20;
74880;PMS5003;63427;49.654;6.596;2024-01-10T00:59:49;25;23;
74880;PMS5003;63427;49.654;6.596;2024-01-10T01:02:14;26;25;
74880;PMS5003;63427;49.654;6.596;2024-01-10T01:04:39;20;20;
74880;PMS5003;63427;49.654;6.596;2024-01-10T01:07:04;26;25;
74880;PMS5003;63427;49.654;6.596;2024-01-10T01:09:29;25;22;
74880;PMS5003;63427;49.654;6.596;2024-01-10T01:11:55;30;29;
74880;PMS5003;63427;49.654;6.596;2024-01-10T01:14:21;19;16;
74880;PMS5003;63427;49.654;6.596;2024-01-10T01:16:46;23;22;
74880;PMS5003;63427;49.654;6.596;2024-01-10T01:19:11;19;18;
74880;PMS5003;63427;49.654;6.596;2024-01-10T01:24:01;23;20;
74880;PMS5003;63427;49.654;6.596;2024-01-10T01:26:27;25;22;
74880;PMS5003;63427;49.654;6.596;2024-01-10T01:28:52;25;21;
74880;PMS5003;63427;49.654;6.596;2024-01-10T01:31:17;26;25;
74880;PMS5003;63427;49.654;6.596;2024-01-10T01:33:45;21;18;
74880;PMS5003;63427;49.654;6.596;2024-01-10T01:36:08;19;15;
74880;PMS5003;63427;49.654;6.596;2024-01-10T01:38:33;21;21;
74880;PMS5003;63427;49.654;6.596;2024-01-10T01:40:59;30;29;
74880;PMS5003;63427;49.654;6.596;2024-01-10T01:43:25;19;19;
74880;PMS5003;63427;49.654;6.596;2024-01-10T01:45:51;22;19;
74880;PMS5003;63427;49.654;6.596;2024-01-10T01:48:15;19;19;
74880;PMS5003;63427;49.654;6.596;2024-01-10T01:50:41;22;19;
74880;PMS5003;63427;49.654;6.596;2024-01-10T01:53:06;21;21;
74880;PMS5003;63427;49.654;6.596;2024-01-10T01:55:31;22;19;
74880;PMS5003;63427;49.654;6.596;2024-01-10T01:57:56;19;19;
74880;PMS5003;63427;49.654;6.596;2024-01-10T02:00:22;26;25;
74880;PMS5003;63427;49.654;6.596;2024-01-10T02:02:47;25;21;
74880;PMS5003;63427;49.654;6.596;2024-01-10T02:05:13;22;21;
74880;PMS5003;63427;49.654;6.596;2024-01-10T02:07:38;23;19;
74880;PMS5003;63427;49.654;6.596;2024-01-10T02:10:04;29;26;
74880;PMS5003;63427;49.654;6.596;2024-01-10T02:12:29;22;19;
74880;PMS5003;63427;49.654;6.596;2024-01-10T02:14:54;19;18;
74880;PMS5003;63427;49.654;6.596;2024-01-10T02:17:19;24;21;
74880;PMS5003;63427;49.654;6.596;2024-01-10T02:19:44;18;16;
74880;PMS5003;63427;49.654;6.596;2024-01-10T02:22:10;22;19;
74880;PMS5003;63427;49.654;6.596;2024-01-10T02:24:35;24;21;
74880;PMS5003;63427;49.654;6.596;2024-01-10T02:27:00;28;26;
74880;PMS5003;63427;49.654;6.596;2024-01-10T02:29:26;24;22;
74880;PMS5003;63427;49.654;6.596;2024-01-10T02:31:51;25;17;
74880;PMS5003;63427;49.654;6.596;2024-01-10T02:34:17;21;21;
74880;PMS5003;63427;49.654;6.596;2024-01-10T02:36:42;25;19;
74880;PMS5003;63427;49.654;6.596;2024-01-10T02:39:07;21;18;
74880;PMS5003;63427;49.654;6.596;2024-01-10T02:41:33;19;19;
74880;PMS5003;63427;49.654;6.596;2024-01-10T02:43:58;21;19;
74880;PMS5003;63427;49.654;6.596;2024-01-10T02:46:24;25;23;
74880;PMS5003;63427;49.654;6.596;2024-01-10T02:48:49;19;18;
74880;PMS5003;63427;49.654;6.596;2024-01-10T02:51:14;22;21;
74880;PMS5003;63427;49.654;6.596;2024-01-10T02:53:39;21;19;
74880;PMS5003;63427;49.654;6.596;2024-01-10T02:56:05;17;15;
74880;PMS5003;63427;49.654;6.596;2024-01-10T02:58:30;18;17;
74880;PMS5003;63427;49.654;6.596;2024-01-10T03:00:56;28;22;
74880;PMS5003;63427;49.654;6.596;2024-01-10T03:03:21;28;24;
74880;PMS5003;63427;49.654;6.596;2024-01-10T03:05:46;24;21;
74880;PMS5003;63427;49.654;6.596;2024-01-10T03:08:12;21;18;
74880;PMS5003;63427;49.654;6.596;2024-01-10T04:03:59;21;21;
74880;PMS5003;63427;49.654;6.596;2024-01-10T04:06:22;16;15;
74880;PMS5003;63427;49.654;6.596;2024-01-10T04:08:47;21;19;
74880;PMS5003;63427;49.654;6.596;2024-01-10T04:11:13;22;19;
74880;PMS5003;63427;49.654;6.596;2024-01-10T04:13:38;19;18;
74880;PMS5003;63427;49.654;6.596;2024-01-10T04:16:04;21;21;
74880;PMS5003;63427;49.654;6.596;2024-01-10T04:18:29;18;16;
74880;PMS5003;63427;49.654;6.596;2024-01-10T04:20:54;21;21;
74880;PMS5003;63427;49.654;6.596;2024-01-10T04:23:19;21;19;
74880;PMS5003;63427;49.654;6.596;2024-01-10T04:25:45;22;21;
74880;PMS5003;63427;49.654;6.596;2024-01-10T04:28:10;23;20;
74880;PMS5003;63427;49.654;6.596;2024-01-10T04:30:35;23;21;
74880;PMS5003;63427;49.654;6.596;2024-01-10T04:33:01;30;29;
74880;PMS5003;63427;49.654;6.596;2024-01-10T04:35:26;25;23;
74880;PMS5003;63427;49.654;6.596;2024-01-10T04:37:51;23;22;
74880;PMS5003;63427;49.654;6.596;2024-01-10T04:40:16;23;23;
74880;PMS5003;63427;49.654;6.596;2024-01-10T04:42:41;25;25;
74880;PMS5003;63427;49.654;6.596;2024-01-10T04:45:07;23;22;
74880;PMS5003;63427;49.654;6.596;2024-01-10T04:47:32;27;25;
74880;PMS5003;63427;49.654;6.596;2024-01-10T04:49:58;27;26;
74880;PMS5003;63427;49.654;6.596;2024-01-10T04:52:23;26;22;
74880;PMS5003;63427;49.654;6.596;2024-01-10T04:54:49;22;22;
74880;PMS5003;63427;49.654;6.596;2024-01-10T04:57:14;36;34;
74880;PMS5003;63427;49.654;6.596;2024-01-10T04:59:40;26;22;
74880;PMS5003;63427;49.654;6.596;2024-01-10T05:02:05;30;29;
74880;PMS5003;63427;49.654;6.596;2024-01-10T05:04:31;27;23;
74880;PMS5003;63427;49.654;6.596;2024-01-10T05:06:56;26;22;
74880;PMS5003;63427;49.654;6.596;2024-01-10T05:09:21;32;31;
74880;PMS5003;63427;49.654;6.596;2024-01-10T05:11:47;23;23;
74880;PMS5003;63427;49.654;6.596;2024-01-10T05:14:15;23;23;
74880;PMS5003;63427;49.654;6.596;2024-01-10T05:16:38;27;26;
74880;PMS5003;63427;49.654;6.596;2024-01-10T05:19:03;30;22;
74880;PMS5003;63427;49.654;6.596;2024-01-10T05:21:29;26;26;
74880;PMS5003;63427;49.654;6.596;2024-01-10T05:23:54;24;23;
74880;PMS5003;63427;49.654;6.596;2024-01-10T05:26:20;24;24;
74880;PMS5003;63427;49.654;6.596;2024-01-10T05:28:46;31;31;
74880;PMS5003;63427;49.654;6.596;2024-01-10T05:31:11;27;27;
74880;PMS5003;63427;49.654;6.596;2024-01-10T05:33:37;34;29;
74880;PMS5003;63427;49.654;6.596;2024-01-10T05:36:03;31;27;
74880;PMS5003;63427;49.654;6.596;2024-01-10T05:38:28;29;27;
74880;PMS5003;63427;49.654;6.596;2024-01-10T05:40:53;27;26;
74880;PMS5003;63427;49.654;6.596;2024-01-10T05:43:19;30;28;
74880;PMS5003;63427;49.654;6.596;2024-01-10T05:45:45;27;26;
74880;PMS5003;63427;49.654;6.596;2024-01-10T05:48:10;27;24;
74880;PMS5003;63427;49.654;6.596;2024-01-10T05:50:36;30;26;
74880;PMS5003;63427;49.654;6.596;2024-01-10T05:53:07;27;24;
74880;PMS5003;63427;49.654;6.596;2024-01-10T05:55:26;30;28;
74880;PMS5003;63427;49.654;6.596;2024-01-10T05:57:52;30;28;
74880;PMS5003;63427;49.654;6.596;2024-01-10T06:00:17;34;33;
74880;PMS5003;63427;49.654;6.596;2024-01-10T06:02:43;34;31;
74880;PMS5003;63427;49.654;6.596;2024-01-10T06:05:08;31;30;
74880;PMS5003;63427;49.654;6.596;2024-01-10T06:07:33;22;20;
74880;PMS5003;63427;49.654;6.596;2024-01-10T06:09:58;24;23;
74880;PMS5003;63427;49.654;6.596;2024-01-10T06:12:23;27;26;
74880;PMS5003;63427;49.654;6.596;2024-01-10T06:14:49;28;27;
74880;PMS5003;63427;49.654;6.596;2024-01-10T06:17:15;33;26;
74880;PMS5003;63427;49.654;6.596;2024-01-10T06:19:40;26;23;
74880;PMS5003;63427;49.654;6.596;2024-01-10T06:22:06;37;31;
74880;PMS5003;63427;49.654;6.596;2024-01-10T06:24:31;70;69;
74880;PMS5003;63427;49.654;6.596;2024-01-10T06:26:57;33;28;
74880;PMS5003;63427;49.654;6.596;2024-01-10T06:29:22;38;33;
74880;PMS5003;63427;49.654;6.596;2024-01-10T06:31:48;27;27;
74880;PMS5003;63427;49.654;6.596;2024-01-10T06:34:13;35;31;
74880;PMS5003;63427;49.654;6.596;2024-01-10T06:36:39;27;25;
74880;PMS5003;63427;49.654;6.596;2024-01-10T06:39:04;37;33;
74880;PMS5003;63427;49.654;6.596;2024-01-10T06:41:30;26;23;
74880;PMS5003;63427;49.654;6.596;2024-01-10T06:43:55;26;26;
74880;PMS5003;63427;49.654;6.596;2024-01-10T06:46:21;27;24;
74880;PMS5003;63427;49.654;6.596;2024-01-10T06:48:46;48;40;
74880;PMS5003;63427;49.654;6.596;2024-01-10T06:51:12;46;42;
74880;PMS5003;63427;49.654;6.596;2024-01-10T06:53:37;40;38;
74880;PMS5003;63427;49.654;6.596;2024-01-10T06:56:02;45;41;
74880;PMS5003;63427;49.654;6.596;2024-01-10T06:58:27;44;41;
74880;PMS5003;63427;49.654;6.596;2024-01-10T07:00:52;38;37;
74880;PMS5003;63427;49.654;6.596;2024-01-10T07:03:18;36;33;
74880;PMS5003;63427;49.654;6.596;2024-01-10T07:05:43;31;29;
74880;PMS5003;63427;49.654;6.596;2024-01-10T07:08:09;37;36;
74880;PMS5003;63427;49.654;6.596;2024-01-10T07:10:34;29;27;
74880;PMS5003;63427;49.654;6.596;2024-01-10T07:13:00;34;33;
74880;PMS5003;63427;49.654;6.596;2024-01-10T07:15:25;23;22;
74880;PMS5003;63427;49.654;6.596;2024-01-10T07:17:50;29;25;
74880;PMS5003;63427;49.654;6.596;2024-01-10T07:20:21;29;27;
74880;PMS5003;63427;49.654;6.596;2024-01-10T07:22:41;39;36;
74880;PMS5003;63427;49.654;6.596;2024-01-10T07:25:07;39;36;
74880;PMS5003;63427;49.654;6.596;2024-01-10T07:27:33;32;32;
74880;PMS5003;63427;49.654;6.596;2024-01-10T07:29:58;27;26;
74880;PMS5003;63427;49.654;6.596;2024-01-10T07:32:24;27;27;
74880;PMS5003;63427;49.654;6.596;2024-01-10T07:34:50;32;29;
74880;PMS5003;63427;49.654;6.596;2024-01-10T07:37:16;43;41;
74880;PMS5003;63427;49.654;6.596;2024-01-10T07:39:41;38;35;
74880;PMS5003;63427;49.654;6.596;2024-01-10T07:42:06;44;39;
74880;PMS5003;63427;49.654;6.596;2024-01-10T07:44:31;41;37;
74880;PMS5003;63427;49.654;6.596;2024-01-10T07:46:57;40;37;
74880;PMS5003;63427;49.654;6.596;2024-01-10T07:49:23;51;48;
74880;PMS5003;63427;49.654;6.596;2024-01-10T07:51:48;43;40;
74880;PMS5003;63427;49.654;6.596;2024-01-10T07:54:14;29;27;
74880;PMS5003;63427;49.654;6.596;2024-01-10T07:56:40;33;30;
74880;PMS5003;63427;49.654;6.596;2024-01-10T07:59:05;34;31;
74880;PMS5003;63427;49.654;6.596;2024-01-10T08:01:30;48;44;
74880;PMS5003;63427;49.654;6.596;2024-01-10T08:03:56;36;31;
74880;PMS5003;63427;49.654;6.596;2024-01-10T08:06:22;31;29;
74880;PMS5003;63427;49.654;6.596;2024-01-10T08:08:47;23;23;
74880;PMS5003;63427;49.654;6.596;2024-01-10T08:11:13;41;37;
74880;PMS5003;63427;49.654;6.596;2024-01-10T08:13:38;36;34;
74880;PMS5003;63427;49.654;6.596;2024-01-10T08:16:04;44;37;
74880;PMS5003;63427;49.654;6.596;2024-01-10T08:18:29;42;40;
74880;PMS5003;63427;49.654;6.596;2024-01-10T08:20:55;41;40;
74880;PMS5003;63427;49.654;6.596;2024-01-10T08:23:21;39;37;
74880;PMS5003;63427;49.654;6.596;2024-01-10T08:25:46;39;37;
74880;PMS5003;63427;49.654;6.596;2024-01-10T08:28:12;34;31;
74880;PMS5003;63427;49.654;6.596;2024-01-10T08:33:02;43;40;
74880;PMS5003;63427;49.654;6.596;2024-01-10T08:35:28;35;34;
74880;PMS5003;63427;49.654;6.596;2024-01-10T08:37:55;39;34;
74880;PMS5003;63427;49.654;6.596;2024-01-10T08:40:19;32;29;
74880;PMS5003;63427;49.654;6.596;2024-01-10T08:42:44;39;29;
74880;PMS5003;63427;49.654;6.596;2024-01-10T08:45:09;36;35;
74880;PMS5003;63427;49.654;6.596;2024-01-10T08:47:40;45;44;
74880;PMS5003;63427;49.654;6.596;2024-01-10T08:50:01;46;41;
74880;PMS5003;63427;49.654;6.596;2024-01-10T08:52:26;38;33;
74880;PMS5003;63427;49.654;6.596;2024-01-10T08:54:50;38;37;
74880;PMS5003;63427;49.654;6.596;2024-01-10T08:57:16;42;42;
74880;PMS5003;63427;49.654;6.596;2024-01-10T08:59:41;38;38;
74880;PMS5003;63427;49.654;6.596;2024-01-10T09:02:07;46;44;
74880;PMS5003;63427;49.654;6.596;2024-01-10T09:04:32;42;39;
74880;PMS5003;63427;49.654;6.596;2024-01-10T09:06:57;43;39;
74880;PMS5003;63427;49.654;6.596;2024-01-10T09:09:23;44;39;
74880;PMS5003;63427;49.654;6.596;2024-01-10T09:11:48;43;40;
74880;PMS5003;63427;49.654;6.596;2024-01-10T09:14:14;37;32;
74880;PMS5003;63427;49.654;6.596;2024-01-10T09:16:40;40;34;
74880;PMS5003;63427;49.654;6.596;2024-01-10T09:19:05;43;42;
74880;PMS5003;63427;49.654;6.596;2024-01-10T09:21:30;46;43;
74880;PMS5003;63427;49.654;6.596;2024-01-10T09:23:56;38;36;
74880;PMS5003;63427;49.654;6.596;2024-01-10T09:26:21;43;43;
74880;PMS5003;63427;49.654;6.596;2024-01-10T09:28:47;43;38;
74880;PMS5003;63427;49.654;6.596;2024-01-10T09:31:12;53;50;
74880;PMS5003;63427;49.654;6.596;2024-01-10T09:33:37;51;50;
74880;PMS5003;63427;49.654;6.596;2024-01-10T09:36:02;46;45;
74880;PMS5003;63427;49.654;6.596;2024-01-10T09:38:27;52;48;
74880;PMS5003;63427;49.654;6.596;2024-01-10T09:40:54;52;48;
74880;PMS5003;63427;49.654;6.596;2024-01-10T09:43:18;46;45;
74880;PMS5003;63427;49.654;6.596;2024-01-10T10:17:14;48;41;
74880;PMS5003;63427;49.654;6.596;2024-01-10T10:19:38;50;48;
74880;PMS5003;63427;49.654;6.596;2024-01-10T10:22:07;46;44;
74880;PMS5003;63427;49.654;6.596;2024-01-10T10:24:29;162;142;
74880;PMS5003;63427;49.654;6.596;2024-01-10T10:26:54;64;56;
74880;PMS5003;63427;49.654;6.596;2024-01-10T10:29:20;49;47;
74880;PMS5003;63427;49.654;6.596;2024-01-10T10:31:47;55;47;
74880;PMS5003;63427;49.654;6.596;2024-01-10T10:34:10;50;49;
74880;PMS5003;63427;49.654;6.596;2024-01-10T10:36:36;49;48;
74880;PMS5003;63427;49.654;6.596;2024-01-10T10:39:07;59;58;
74880;PMS5003;63427;49.654;6.596;2024-01-10T10:41:27;38;37;
74880;PMS5003;63427;49.654;6.596;2024-01-10T10:43:53;74;69;
74880;PMS5003;63427;49.654;6.596;2024-01-10T10:46:18;60;58;
74880;PMS5003;63427;49.654;6.596;2024-01-10T10:48:43;57;53;
74880;PMS5003;63427;49.654;6.596;2024-01-10T10:51:10;56;53;
74880;PMS5003;63427;49.654;6.596;2024-01-10T10:53:38;66;65;
74880;PMS5003;63427;49.654;6.596;2024-01-10T10:55:59;64;64;
74880;PMS5003;63427;49.654;6.596;2024-01-10T10:58:24;68;67;
74880;PMS5003;63427;49.654;6.596;2024-01-10T11:00:50;59;56;
74880;PMS5003;63427;49.654;6.596;2024-01-10T11:03:15;51;49;
74880;PMS5003;63427;49.654;6.596;2024-01-10T11:05:41;58;53;
74880;PMS5003;63427;49.654;6.596;2024-01-10T11:08:07;44;42;
74880;PMS5003;63427;49.654;6.596;2024-01-10T11:39:41;46;41;
74880;PMS5003;63427;49.654;6.596;2024-01-10T11:42:04;41;39;
74880;PMS5003;63427;49.654;6.596;2024-01-10T11:44:28;45;43;
74880;PMS5003;63427;49.654;6.596;2024-01-10T11:46:55;49;45;
74880;PMS5003;63427;49.654;6.596;2024-01-10T11:49:20;48;47;
74880;PMS5003;63427;49.654;6.596;2024-01-10T11:51:46;55;54;
74880;PMS5003;63427;49.654;6.596;2024-01-10T11:54:11;44;44;
74880;PMS5003;63427;49.654;6.596;2024-01-10T11:56:37;40;39;
74880;PMS5003;63427;49.654;6.596;2024-01-10T11:59:01;49;47;
74880;PMS5003;63427;49.654;6.596;2024-01-10T12:01:26;55;49;
74880;PMS5003;63427;49.654;6.596;2024-01-10T12:03:52;47;46;
74880;PMS5003;63427;49.654;6.596;2024-01-10T12:06:22;47;46;
74880;PMS5003;63427;49.654;6.596;2024-01-10T12:08:42;48;44;
74880;PMS5003;63427;49.654;6.596;2024-01-10T12:11:08;75;69;
74880;PMS5003;63427;49.654;6.596;2024-01-10T12:13:33;51;51;
74880;PMS5003;63427;49.654;6.596;2024-01-10T12:16:04;44;42;
74880;PMS5003;63427;49.654;6.596;2024-01-10T12:18:25;53;51;
74880;PMS5003;63427;49.654;6.596;2024-01-10T12:20:50;55;52;
74880;PMS5003;63427;49.654;6.596;2024-01-10T12:23:15;62;58;
74880;PMS5003;63427;49.654;6.596;2024-01-10T12:25:41;52;52;
74880;PMS5003;63427;49.654;6.596;2024-01-10T12:28:07;54;51;
74880;PMS5003;63427;49.654;6.596;2024-01-10T12:30:32;58;57;
74880;PMS5003;63427;49.654;6.596;2024-01-10T12:32:58;50;48;
74880;PMS5003;63427;49.654;6.596;2024-01-10T12:35:23;45;42;
74880;PMS5003;63427;49.654;6.596;2024-01-10T12:37:54;41;39;
74880;PMS5003;63427;49.654;6.596;2024-01-10T12:40:14;46;45;
74880;PMS5003;63427;49.654;6.596;2024-01-10T12:42:40;44;43;
74880;PMS5003;63427;49.654;6.596;2024-01-10T12:45:05;44;41;
74880;PMS5003;63427;49.654;6.596;2024-01-10T12:47:30;49;45;
74880;PMS5003;63427;49.654;6.596;2024-01-10T12:49:56;53;50;
74880;PMS5003;63427;49.654;6.596;2024-01-10T12:52:21;53;51;
74880;PMS5003;63427;49.654;6.596;2024-01-10T12:54:47;44;44;
74880;PMS5003;63427;49.654;6.596;2024-01-10T12:57:12;57;55;
74880;PMS5003;63427;49.654;6.596;2024-01-10T12:59:38;44;41;
74880;PMS5003;63427;49.654;6.596;2024-01-10T13:02:03;51;48;
74880;PMS5003;63427;49.654;6.596;2024-01-10T13:04:28;46;46;
74880;PMS5003;63427;49.654;6.596;2024-01-10T13:06:54;43;41;
74880;PMS5003;63427;49.654;6.596;2024-01-10T13:09:19;43;39;
74880;PMS5003;63427;49.654;6.596;2024-01-10T13:11:45;51;49;
74880;PMS5003;63427;49.654;6.596;2024-01-10T13:14:10;47;45;
74880;PMS5003;63427;49.654;6.596;2024-01-10T13:16:36;77;74;
74880;PMS5003;63427;49.654;6.596;2024-01-10T13:19:06;49;46;
74880;PMS5003;63427;49.654;6.596;2024-01-10T13:21:27;47;45;
74880;PMS5003;63427;49.654;6.596;2024-01-10T13:23:52;41;40;
74880;PMS5003;63427;49.654;6.596;2024-01-10T13:26:17;38;37;
74880;PMS5003;63427;49.654;6.596;2024-01-10T13:28:43;46;43;
74880;PMS5003;63427;49.654;6.596;2024-01-10T13:31:08;49;45;
74880;PMS5003;63427;49.654;6.596;2024-01-10T13:33:34;45;44;
74880;PMS5003;63427;49.654;6.596;2024-01-10T13:36:00;48;47;
74880;PMS5003;63427;49.654;6.596;2024-01-10T13:38:25;48;47;
74880;PMS5003;63427;49.654;6.596;2024-01-10T13:40:50;43;40;
74880;PMS5003;63427;49.654;6.596;2024-01-10T13:43:16;38;37;
74880;PMS5003;63427;49.654;6.596;2024-01-10T13:45:42;49;46;
74880;PMS5003;63427;49.654;6.596;2024-01-10T13:48:08;46;43;
74880;PMS5003;63427;49.654;6.596;2024-01-10T13:50:33;44;40;
74880;PMS5003;63427;49.654;6.596;2024-01-10T13:52:58;48;47;
74880;PMS5003;63427;49.654;6.596;2024-01-10T13:55:24;44;43;
74880;PMS5003;63427;49.654;6.596;2024-01-10T13:57:50;47;44;
74880;PMS5003;63427;49.654;6.596;2024-01-10T14:00:15;46;44;
74880;PMS5003;63427;49.654;6.596;2024-01-10T15:56:38;36;33;
74880;PMS5003;63427;49.654;6.596;2024-01-10T15:59:03;49;49;
74880;PMS5003;63427;49.654;6.596;2024-01-10T16:01:28;55;52;
74880;PMS5003;63427;49.654;6.596;2024-01-10T16:03:53;62;56;
74880;PMS5003;63427;49.654;6.596;2024-01-10T16:06:18;54;53;
74880;PMS5003;63427;49.654;6.596;2024-01-10T16:08:44;60;57;
74880;PMS5003;63427;49.654;6.596;2024-01-10T16:11:10;74;68;
74880;PMS5003;63427;49.654;6.596;2024-01-10T16:13:35;82;75;
74880;PMS5003;63427;49.654;6.596;2024-01-10T16:16:01;76;72;
74880;PMS5003;63427;49.654;6.596;2024-01-10T16:18:26;45;42;
74880;PMS5003;63427;49.654;6.596;2024-01-10T16:20:52;35;35;
74880;PMS5003;63427;49.654;6.596;2024-01-10T16:23:18;45;43;
74880;PMS5003;63427;49.654;6.596;2024-01-10T16:25:51;51;47;
74880;PMS5003;63427;49.654;6.596;2024-01-10T16:28:09;74;72;
74880;PMS5003;63427;49.654;6.596;2024-01-10T16:30:34;81;76;
74880;PMS5003;63427;49.654;6.596;2024-01-10T16:33:00;78;71;
74880;PMS5003;63427;49.654;6.596;2024-01-10T16:35:26;61;60;
74880;PMS5003;63427;49.654;6.596;2024-01-10T16:37:51;58;55;
74880;PMS5003;63427;49.654;6.596;2024-01-10T16:40:16;54;49;
74880;PMS5003;63427;49.654;6.596;2024-01-10T16:42:41;72;67;
74880;PMS5003;63427;49.654;6.596;2024-01-10T16:45:07;68;62;
74880;PMS5003;63427;49.654;6.596;2024-01-10T16:47:32;62;58;
74880;PMS5003;63427;49.654;6.596;2024-01-10T16:49:57;57;56;
74880;PMS5003;63427;49.654;6.596;2024-01-10T16:52:31;63;62;
74880;PMS5003;63427;49.654;6.596;2024-01-10T16:54:48;58;57;
74880;PMS5003;63427;49.654;6.596;2024-01-10T16:57:14;60;55;
74880;PMS5003;63427;49.654;6.596;2024-01-10T16:59:39;53;49;
74880;PMS5003;63427;49.654;6.596;2024-01-10T17:02:10;53;48;
74880;PMS5003;63427;49.654;6.596;2024-01-10T17:04:30;48;47;
74880;PMS5003;63427;49.654;6.596;2024-01-10T17:06:56;48;46;
74880;PMS5003;63427;49.654;6.596;2024-01-10T17:09:21;43;43;
74880;PMS5003;63427;49.654;6.596;2024-01-10T17:11:47;60;55;
74880;PMS5003;63427;49.654;6.596;2024-01-10T17:14:12;59;56;
74880;PMS5003;63427;49.654;6.596;2024-01-10T17:16:37;55;52;
74880;PMS5003;63427;49.654;6.596;2024-01-10T17:19:03;67;62;
74880;PMS5003;63427;49.654;6.596;2024-01-10T17:21:28;67;63;
74880;PMS5003;63427;49.654;6.596;2024-01-10T17:23:54;74;65;
74880;PMS5003;63427;49.654;6.596;2024-01-10T17:26:20;65;61;
74880;PMS5003;63427;49.654;6.596;2024-01-10T17:28:45;51;51;
74880;PMS5003;63427;49.654;6.596;2024-01-10T17:31:11;74;66;
74880;PMS5003;63427;49.654;6.596;2024-01-10T17:33:36;100;95;
74880;PMS5003;63427;49.654;6.596;2024-01-10T17:36:02;94;89;
74880;PMS5003;63427;49.654;6.596;2024-01-10T17:38:27;70;67;
74880;PMS5003;63427;49.654;6.596;2024-01-10T17:40:52;80;69;
74880;PMS5003;63427;49.654;6.596;2024-01-10T17:43:17;69;61;
74880;PMS5003;63427;49.654;6.596;2024-01-10T17:45:42;73;72;
74880;PMS5003;63427;49.654;6.596;2024-01-10T17:48:08;71;66;
74880;PMS5003;63427;49.654;6.596;2024-01-10T17:50:33;68;65;
74880;PMS5003;63427;49.654;6.596;2024-01-10T17:52:59;62;57;
74880;PMS5003;63427;49.654;6.596;2024-01-10T17:55:24;66;64;
74880;PMS5003;63427;49.654;6.596;2024-01-10T17:57:50;71;65;
74880;PMS5003;63427;49.654;6.596;2024-01-10T18:00:16;73;68;
74880;PMS5003;63427;49.654;6.596;2024-01-10T18:02:41;59;58;
74880;PMS5003;63427;49.654;6.596;2024-01-10T18:05:07;50;46;
74880;PMS5003;63427;49.654;6.596;2024-01-10T18:07:33;52;49;
74880;PMS5003;63427;49.654;6.596;2024-01-10T18:09:58;54;51;
74880;PMS5003;63427;49.654;6.596;2024-01-10T18:12:36;55;50;
74880;PMS5003;63427;49.654;6.596;2024-01-10T18:14:49;63;59;
74880;PMS5003;63427;49.654;6.596;2024-01-10T18:17:15;48;47;
74880;PMS5003;63427;49.654;6.596;2024-01-10T18:19:41;55;52;
74880;PMS5003;63427;49.654;6.596;2024-01-10T18:22:07;63;57;
74880;PMS5003;63427;49.654;6.596;2024-01-10T18:24:32;60;55;
74880;PMS5003;63427;49.654;6.596;2024-01-10T18:26:58;57;55;
74880;PMS5003;63427;49.654;6.596;2024-01-10T18:29:23;48;43;
74880;PMS5003;63427;49.654;6.596;2024-01-10T18:31:49;58;52;
74880;PMS5003;63427;49.654;6.596;2024-01-10T18:34:14;55;48;
74880;PMS5003;63427;49.654;6.596;2024-01-10T18:36:39;55;51;
74880;PMS5003;63427;49.654;6.596;2024-01-10T18:39:05;63;52;
74880;PMS5003;63427;49.654;6.596;2024-01-10T18:41:31;51;49;
74880;PMS5003;63427;49.654;6.596;2024-01-10T18:43:56;56;54;
74880;PMS5003;63427;49.654;6.596;2024-01-10T18:46:22;63;58;
74880;PMS5003;63427;49.654;6.596;2024-01-10T18:48:48;66;60;
74880;PMS5003;63427;49.654;6.596;2024-01-10T18:51:15;50;45;
74880;PMS5003;63427;49.654;6.596;2024-01-10T18:53:38;55;53;
74880;PMS5003;63427;49.654;6.596;2024-01-10T18:56:04;62;58;
74880;PMS5003;63427;49.654;6.596;2024-01-10T18:58:30;58;53;
74880;PMS5003;63427;49.654;6.596;2024-01-10T19:00:55;70;61;
74880;PMS5003;63427;49.654;6.596;2024-01-10T19:03:24;76;72;
74880;PMS5003;63427;49.654;6.596;2024-01-10T19:05:45;90;81;
74880;PMS5003;63427;49.654;6.596;2024-01-10T19:08:11;78;74;
74880;PMS5003;63427;49.654;6.596;2024-01-10T19:10:36;79;72;
74880;PMS5003;63427;49.654;6.596;2024-01-10T19:13:03;81;77;
74880;PMS5003;63427;49.654;6.596;2024-01-10T19:15:28;79;78;
74880;PMS5003;63427;49.654;6.596;2024-01-10T19:17:53;86;74;
74880;PMS5003;63427;49.654;6.596;2024-01-10T19:20:19;65;62;
74880;PMS5003;63427;49.654;6.596;2024-01-10T19:22:44;70;64;
74880;PMS5003;63427;49.654;6.596;2024-01-10T19:25:10;69;64;
74880;PMS5003;63427;49.654;6.596;2024-01-10T19:27:35;78;74;
74880;PMS5003;63427;49.654;6.596;2024-01-10T19:30:01;62;60;
74880;PMS5003;63427;49.654;6.596;2024-01-10T19:32:27;73;69;
74880;PMS5003;63427;49.654;6.596;2024-01-10T19:34:53;63;59;
74880;PMS5003;63427;49.654;6.596;2024-01-10T19:37:18;65;63;
74880;PMS5003;63427;49.654;6.596;2024-01-10T19:39:44;59;56;
74880;PMS5003;63427;49.654;6.596;2024-01-10T19:42:10;60;55;
74880;PMS5003;63427;49.654;6.596;2024-01-10T19:44:40;72;66;
74880;PMS5003;63427;49.654;6.596;2024-01-10T19:47:05;71;66;
74880;PMS5003;63427;49.654;6.596;2024-01-10T19:49:26;60;55;
74880;PMS5003;63427;49.654;6.596;2024-01-10T19:51:52;57;57;
74880;PMS5003;63427;49.654;6.596;2024-01-10T19:54:18;67;64;
74880;PMS5003;63427;49.654;6.596;2024-01-10T19:56:43;55;49;